7.500 kWh

EHAM AMSTERDAM/SCHIPHOL NLD -3 m.
METAR EHAM 262255Z 25007KT 220V280 9000 -RADZ FEW006 BKN043 14/13
Q1009 TEMPO 7000

EHAM AMSTERDAM/SCHIPHOL NLD -3 m.
TAF EHAM 261702Z 2618/2724 24015G25KT 9999 FEW030
TEMPO 2618/2622 5000 RA SHRA SCT018 SCT025CB
BECMG 2619/2621 BKN008 BKN014
BECMG 2622/2624 29008KT SCT040
BECMG 2709/2712 26013G23KT
BECMG 2715/2718 23010KT
PROB30 TEMPO 2720/2724 7000 -SHRA SCT035CB